sensor_id;sensor_type;location;lat;lon;timestamp;P1;durP1;ratioP1;P2;durP2;ratioP2
70744;SDS011;59284;31.390;34.904;2023-03-05T00:00:46;9.83;;;2.23;;
70744;SDS011;59284;31.390;34.904;2023-03-05T00:03:12;11.00;;;3.73;;
70744;SDS011;59284;31.390;34.904;2023-03-05T00:05:37;10.55;;;2.85;;
70744;SDS011;59284;31.390;34.904;2023-03-05T00:08:04;5.07;;;2.47;;
70744;SDS011;59284;31.390;34.904;2023-03-05T00:10:30;10.95;;;2.90;;
70744;SDS011;59284;31.390;34.904;2023-03-05T00:12:56;3.60;;;2.40;;
70744;SDS011;59284;31.390;34.904;2023-03-05T00:15:21;13.13;;;2.40;;
70744;SDS011;59284;31.390;34.904;2023-03-05T00:17:47;11.77;;;3.08;;
70744;SDS011;59284;31.390;34.904;2023-03-05T00:20:13;15.07;;;3.87;;
70744;SDS011;59284;31.390;34.904;2023-03-05T00:22:39;10.80;;;3.35;;
70744;SDS011;59284;31.390;34.904;2023-03-05T00:25:05;15.97;;;3.03;;
70744;SDS011;59284;31.390;34.904;2023-03-05T00:27:31;12.38;;;2.88;;
70744;SDS011;59284;31.390;34.904;2023-03-05T00:29:56;11.00;;;3.20;;
70744;SDS011;59284;31.390;34.904;2023-03-05T00:32:22;6.23;;;2.57;;
70744;SDS011;59284;31.390;34.904;2023-03-05T00:34:48;12.57;;;3.75;;
70744;SDS011;59284;31.390;34.904;2023-03-05T00:37:16;12.80;;;2.80;;
70744;SDS011;59284;31.390;34.904;2023-03-05T00:39:42;13.77;;;3.90;;
70744;SDS011;59284;31.390;34.904;2023-03-05T00:42:07;8.93;;;2.90;;
70744;SDS011;59284;31.390;34.904;2023-03-05T00:44:33;11.60;;;2.90;;
70744;SDS011;59284;31.390;34.904;2023-03-05T00:46:59;13.10;;;3.75;;
70744;SDS011;59284;31.390;34.904;2023-03-05T00:49:25;8.93;;;2.53;;
70744;SDS011;59284;31.390;34.904;2023-03-05T00:51:51;16.90;;;3.58;;
70744;SDS011;59284;31.390;34.904;2023-03-05T00:54:16;8.77;;;2.85;;
70744;SDS011;59284;31.390;34.904;2023-03-05T00:56:42;7.63;;;3.43;;
70744;SDS011;59284;31.390;34.904;2023-03-05T00:59:09;12.05;;;3.00;;
70744;SDS011;59284;31.390;34.904;2023-03-05T01:01:34;6.93;;;2.53;;
70744;SDS011;59284;31.390;34.904;2023-03-05T01:04:00;7.83;;;3.90;;
70744;SDS011;59284;31.390;34.904;2023-03-05T01:06:26;6.78;;;2.72;;
70744;SDS011;59284;31.390;34.904;2023-03-05T01:08:53;24.95;;;3.15;;
70744;SDS011;59284;31.390;34.904;2023-03-05T01:11:20;14.73;;;4.03;;
70744;SDS011;59284;31.390;34.904;2023-03-05T01:13:46;9.25;;;3.38;;
70744;SDS011;59284;31.390;34.904;2023-03-05T01:16:12;11.65;;;3.38;;
70744;SDS011;59284;31.390;34.904;2023-03-05T01:18:38;6.03;;;2.20;;
70744;SDS011;59284;31.390;34.904;2023-03-05T01:21:04;37.55;;;3.42;;
70744;SDS011;59284;31.390;34.904;2023-03-05T01:23:31;12.65;;;2.42;;
70744;SDS011;59284;31.390;34.904;2023-03-05T01:25:59;6.55;;;2.38;;
70744;SDS011;59284;31.390;34.904;2023-03-05T01:28:25;13.57;;;3.07;;
70744;SDS011;59284;31.390;34.904;2023-03-05T01:30:52;16.02;;;2.72;;
70744;SDS011;59284;31.390;34.904;2023-03-05T01:33:17;7.33;;;2.90;;
70744;SDS011;59284;31.390;34.904;2023-03-05T01:35:46;10.02;;;3.22;;
70744;SDS011;59284;31.390;34.904;2023-03-05T01:38:13;15.23;;;2.85;;
70744;SDS011;59284;31.390;34.904;2023-03-05T01:40:40;14.70;;;3.10;;
70744;SDS011;59284;31.390;34.904;2023-03-05T01:45:34;11.30;;;3.53;;
70744;SDS011;59284;31.390;34.904;2023-03-05T01:48:00;18.98;;;3.65;;
70744;SDS011;59284;31.390;34.904;2023-03-05T01:50:26;24.83;;;3.80;;
70744;SDS011;59284;31.390;34.904;2023-03-05T01:52:54;7.00;;;2.38;;
70744;SDS011;59284;31.390;34.904;2023-03-05T01:55:23;7.25;;;2.70;;
70744;SDS011;59284;31.390;34.904;2023-03-05T01:57:53;13.93;;;4.20;;
70744;SDS011;59284;31.390;34.904;2023-03-05T02:00:21;10.20;;;2.58;;
70744;SDS011;59284;31.390;34.904;2023-03-05T02:02:51;10.90;;;3.58;;
70744;SDS011;59284;31.390;34.904;2023-03-05T02:05:27;10.63;;;2.60;;
70744;SDS011;59284;31.390;34.904;2023-03-05T02:07:58;18.03;;;4.30;;
70744;SDS011;59284;31.390;34.904;2023-03-05T02:10:33;11.15;;;3.50;;
70744;SDS011;59284;31.390;34.904;2023-03-05T02:13:00;11.00;;;2.78;;
70744;SDS011;59284;31.390;34.904;2023-03-05T02:15:27;8.27;;;2.72;;
70744;SDS011;59284;31.390;34.904;2023-03-05T02:17:54;8.32;;;2.45;;
70744;SDS011;59284;31.390;34.904;2023-03-05T02:20:22;6.80;;;2.23;;
70744;SDS011;59284;31.390;34.904;2023-03-05T02:22:50;9.02;;;3.45;;
70744;SDS011;59284;31.390;34.904;2023-03-05T02:25:17;11.33;;;2.17;;
70744;SDS011;59284;31.390;34.904;2023-03-05T02:27:45;21.40;;;3.90;;
70744;SDS011;59284;31.390;34.904;2023-03-05T02:30:24;13.07;;;3.75;;
70744;SDS011;59284;31.390;34.904;2023-03-05T02:32:50;7.13;;;1.98;;
70744;SDS011;59284;31.390;34.904;2023-03-05T02:35:16;21.65;;;4.68;;
70744;SDS011;59284;31.390;34.904;2023-03-05T02:37:42;12.67;;;4.27;;
70744;SDS011;59284;31.390;34.904;2023-03-05T02:40:08;7.13;;;2.63;;
70744;SDS011;59284;31.390;34.904;2023-03-05T02:42:35;19.05;;;3.13;;
70744;SDS011;59284;31.390;34.904;2023-03-05T02:45:01;13.57;;;2.20;;
70744;SDS011;59284;31.390;34.904;2023-03-05T02:47:27;16.17;;;3.53;;
70744;SDS011;59284;31.390;34.904;2023-03-05T02:49:53;21.08;;;5.22;;
70744;SDS011;59284;31.390;34.904;2023-03-05T02:52:19;21.92;;;3.40;;
70744;SDS011;59284;31.390;34.904;2023-03-05T02:54:47;10.17;;;2.73;;
70744;SDS011;59284;31.390;34.904;2023-03-05T02:57:14;15.18;;;3.67;;
70744;SDS011;59284;31.390;34.904;2023-03-05T02:59:40;15.43;;;2.78;;
70744;SDS011;59284;31.390;34.904;2023-03-05T03:02:06;18.30;;;4.25;;
70744;SDS011;59284;31.390;34.904;2023-03-05T03:04:32;13.40;;;4.00;;
70744;SDS011;59284;31.390;34.904;2023-03-05T03:06:57;9.18;;;2.42;;
70744;SDS011;59284;31.390;34.904;2023-03-05T03:09:23;12.23;;;4.07;;
70744;SDS011;59284;31.390;34.904;2023-03-05T03:11:50;14.73;;;3.13;;
70744;SDS011;59284;31.390;34.904;2023-03-05T03:14:17;19.55;;;4.38;;
70744;SDS011;59284;31.390;34.904;2023-03-05T03:16:43;16.65;;;4.15;;
70744;SDS011;59284;31.390;34.904;2023-03-05T03:19:09;15.93;;;4.40;;
70744;SDS011;59284;31.390;34.904;2023-03-05T03:21:34;15.27;;;3.75;;
70744;SDS011;59284;31.390;34.904;2023-03-05T03:24:02;13.00;;;4.63;;
70744;SDS011;59284;31.390;34.904;2023-03-05T03:26:28;11.60;;;3.55;;
70744;SDS011;59284;31.390;34.904;2023-03-05T03:28:56;20.90;;;5.07;;
70744;SDS011;59284;31.390;34.904;2023-03-05T03:31:22;21.83;;;4.97;;
70744;SDS011;59284;31.390;34.904;2023-03-05T03:33:48;13.15;;;4.80;;
70744;SDS011;59284;31.390;34.904;2023-03-05T03:36:14;17.17;;;3.70;;
70744;SDS011;59284;31.390;34.904;2023-03-05T03:38:39;14.63;;;2.77;;
70744;SDS011;59284;31.390;34.904;2023-03-05T03:41:05;14.02;;;2.50;;
70744;SDS011;59284;31.390;34.904;2023-03-05T03:43:32;23.15;;;4.18;;
70744;SDS011;59284;31.390;34.904;2023-03-05T03:46:03;11.48;;;3.03;;
70744;SDS011;59284;31.390;34.904;2023-03-05T03:48:30;14.77;;;2.83;;
70744;SDS011;59284;31.390;34.904;2023-03-05T03:50:56;17.33;;;4.30;;
70744;SDS011;59284;31.390;34.904;2023-03-05T03:53:21;11.27;;;3.60;;
70744;SDS011;59284;31.390;34.904;2023-03-05T03:55:47;24.73;;;5.83;;
70744;SDS011;59284;31.390;34.904;2023-03-05T03:58:13;25.52;;;3.97;;
70744;SDS011;59284;31.390;34.904;2023-03-05T04:00:39;20.53;;;3.97;;
70744;SDS011;59284;31.390;34.904;2023-03-05T04:03:06;19.25;;;4.97;;
70744;SDS011;59284;31.390;34.904;2023-03-05T04:05:32;19.83;;;4.53;;
70744;SDS011;59284;31.390;34.904;2023-03-05T04:07:58;13.50;;;4.17;;
70744;SDS011;59284;31.390;34.904;2023-03-05T04:10:25;15.18;;;4.05;;
70744;SDS011;59284;31.390;34.904;2023-03-05T04:12:51;16.00;;;4.45;;
70744;SDS011;59284;31.390;34.904;2023-03-05T04:15:17;21.13;;;4.50;;
70744;SDS011;59284;31.390;34.904;2023-03-05T04:17:43;19.02;;;5.15;;
70744;SDS011;59284;31.390;34.904;2023-03-05T04:20:08;19.42;;;4.35;;
70744;SDS011;59284;31.390;34.904;2023-03-05T04:22:35;7.77;;;2.73;;
70744;SDS011;59284;31.390;34.904;2023-03-05T04:25:02;24.70;;;4.97;;
70744;SDS011;59284;31.390;34.904;2023-03-05T04:27:32;25.70;;;5.47;;
70744;SDS011;59284;31.390;34.904;2023-03-05T04:29:59;14.90;;;3.83;;
70744;SDS011;59284;31.390;34.904;2023-03-05T04:32:25;17.80;;;4.43;;
70744;SDS011;59284;31.390;34.904;2023-03-05T04:34:54;16.30;;;4.67;;
70744;SDS011;59284;31.390;34.904;2023-03-05T04:37:23;19.83;;;4.82;;
70744;SDS011;59284;31.390;34.904;2023-03-05T04:39:50;17.05;;;4.20;;
70744;SDS011;59284;31.390;34.904;2023-03-05T04:42:16;18.58;;;5.38;;
70744;SDS011;59284;31.390;34.904;2023-03-05T04:44:44;12.63;;;3.70;;
70744;SDS011;59284;31.390;34.904;2023-03-05T04:47:11;21.67;;;4.47;;
70744;SDS011;59284;31.390;34.904;2023-03-05T04:49:37;10.48;;;3.60;;
70744;SDS011;59284;31.390;34.904;2023-03-05T04:52:02;11.87;;;4.10;;
70744;SDS011;59284;31.390;34.904;2023-03-05T04:54:28;17.03;;;5.17;;
70744;SDS011;59284;31.390;34.904;2023-03-05T04:56:54;13.10;;;3.85;;
70744;SDS011;59284;31.390;34.904;2023-03-05T04:59:19;21.13;;;4.50;;
70744;SDS011;59284;31.390;34.904;2023-03-05T05:01:45;11.07;;;3.00;;
70744;SDS011;59284;31.390;34.904;2023-03-05T05:04:11;7.03;;;3.33;;
70744;SDS011;59284;31.390;34.904;2023-03-05T05:06:36;14.05;;;4.22;;
70744;SDS011;59284;31.390;34.904;2023-03-05T05:09:02;17.97;;;3.73;;
70744;SDS011;59284;31.390;34.904;2023-03-05T05:11:28;14.93;;;3.78;;
70744;SDS011;59284;31.390;34.904;2023-03-05T05:13:54;16.13;;;4.70;;
70744;SDS011;59284;31.390;34.904;2023-03-05T05:16:19;13.82;;;4.40;;
70744;SDS011;59284;31.390;34.904;2023-03-05T05:18:45;12.73;;;4.80;;
70744;SDS011;59284;31.390;34.904;2023-03-05T05:21:11;17.08;;;4.07;;
70744;SDS011;59284;31.390;34.904;2023-03-05T05:23:38;25.90;;;5.07;;
70744;SDS011;59284;31.390;34.904;2023-03-05T05:26:05;7.13;;;2.63;;
70744;SDS011;59284;31.390;34.904;2023-03-05T05:28:32;12.27;;;2.58;;
70744;SDS011;59284;31.390;34.904;2023-03-05T05:30:58;7.18;;;2.95;;
70744;SDS011;59284;31.390;34.904;2023-03-05T05:33:24;16.00;;;4.68;;
70744;SDS011;59284;31.390;34.904;2023-03-05T05:35:50;12.90;;;4.10;;
70744;SDS011;59284;31.390;34.904;2023-03-05T05:38:16;10.40;;;3.35;;
70744;SDS011;59284;31.390;34.904;2023-03-05T05:40:41;16.63;;;3.65;;
70744;SDS011;59284;31.390;34.904;2023-03-05T05:43:07;8.87;;;2.83;;
70744;SDS011;59284;31.390;34.904;2023-03-05T05:45:33;16.15;;;3.70;;
70744;SDS011;59284;31.390;34.904;2023-03-05T05:48:02;21.17;;;5.30;;
70744;SDS011;59284;31.390;34.904;2023-03-05T05:50:28;15.07;;;3.92;;
70744;SDS011;59284;31.390;34.904;2023-03-05T05:52:53;14.43;;;4.70;;
70744;SDS011;59284;31.390;34.904;2023-03-05T05:55:19;16.75;;;4.15;;
70744;SDS011;59284;31.390;34.904;2023-03-05T05:57:45;12.87;;;3.60;;
70744;SDS011;59284;31.390;34.904;2023-03-05T06:00:11;14.68;;;3.25;;
70744;SDS011;59284;31.390;34.904;2023-03-05T06:02:38;16.67;;;3.75;;
70744;SDS011;59284;31.390;34.904;2023-03-05T06:05:06;14.18;;;3.47;;
70744;SDS011;59284;31.390;34.904;2023-03-05T06:07:35;9.50;;;3.40;;
70744;SDS011;59284;31.390;34.904;2023-03-05T06:10:01;11.53;;;3.13;;
70744;SDS011;59284;31.390;34.904;2023-03-05T06:12:27;8.57;;;2.40;;
70744;SDS011;59284;31.390;34.904;2023-03-05T06:14:53;11.55;;;3.13;;
70744;SDS011;59284;31.390;34.904;2023-03-05T06:17:19;9.23;;;2.80;;
70744;SDS011;59284;31.390;34.904;2023-03-05T06:19:44;6.18;;;2.70;;
70744;SDS011;59284;31.390;34.904;2023-03-05T06:22:10;7.47;;;2.85;;
70744;SDS011;59284;31.390;34.904;2023-03-05T06:24:37;10.67;;;3.50;;
70744;SDS011;59284;31.390;34.904;2023-03-05T06:27:03;15.52;;;4.05;;
70744;SDS011;59284;31.390;34.904;2023-03-05T06:29:29;17.73;;;5.20;;
70744;SDS011;59284;31.390;34.904;2023-03-05T06:31:55;17.42;;;4.70;;
70744;SDS011;59284;31.390;34.904;2023-03-05T06:34:21;22.63;;;4.53;;
70744;SDS011;59284;31.390;34.904;2023-03-05T06:36:47;10.77;;;3.22;;
70744;SDS011;59284;31.390;34.904;2023-03-05T06:39:13;11.18;;;3.38;;
70744;SDS011;59284;31.390;34.904;2023-03-05T06:41:39;13.37;;;4.30;;
70744;SDS011;59284;31.390;34.904;2023-03-05T06:44:04;12.82;;;4.40;;
70744;SDS011;59284;31.390;34.904;2023-03-05T06:46:34;12.80;;;3.70;;
70744;SDS011;59284;31.390;34.904;2023-03-05T06:49:04;14.90;;;3.95;;
70744;SDS011;59284;31.390;34.904;2023-03-05T06:51:34;14.30;;;2.80;;
70744;SDS011;59284;31.390;34.904;2023-03-05T06:54:03;14.32;;;4.75;;
70744;SDS011;59284;31.390;34.904;2023-03-05T06:56:30;12.98;;;5.03;;
70744;SDS011;59284;31.390;34.904;2023-03-05T06:58:56;8.43;;;3.00;;
70744;SDS011;59284;31.390;34.904;2023-03-05T07:01:22;12.77;;;3.72;;
70744;SDS011;59284;31.390;34.904;2023-03-05T07:03:51;17.98;;;4.65;;
70744;SDS011;59284;31.390;34.904;2023-03-05T07:06:18;13.70;;;3.22;;
70744;SDS011;59284;31.390;34.904;2023-03-05T07:08:44;14.03;;;4.60;;
70744;SDS011;59284;31.390;34.904;2023-03-05T07:11:11;12.85;;;4.07;;
70744;SDS011;59284;31.390;34.904;2023-03-05T07:13:38;14.10;;;3.80;;
70744;SDS011;59284;31.390;34.904;2023-03-05T07:16:05;17.63;;;4.33;;
70744;SDS011;59284;31.390;34.904;2023-03-05T07:18:35;11.80;;;4.07;;
70744;SDS011;59284;31.390;34.904;2023-03-05T07:21:04;15.98;;;3.15;;
70744;SDS011;59284;31.390;34.904;2023-03-05T07:23:31;11.35;;;3.45;;
70744;SDS011;59284;31.390;34.904;2023-03-05T07:25:59;10.45;;;3.22;;
70744;SDS011;59284;31.390;34.904;2023-03-05T07:28:26;14.93;;;4.03;;
70744;SDS011;59284;31.390;34.904;2023-03-05T07:30:58;12.97;;;4.13;;
70744;SDS011;59284;31.390;34.904;2023-03-05T07:33:31;12.48;;;3.08;;
70744;SDS011;59284;31.390;34.904;2023-03-05T07:35:59;11.10;;;3.78;;
70744;SDS011;59284;31.390;34.904;2023-03-05T07:38:25;15.00;;;3.97;;
70744;SDS011;59284;31.390;34.904;2023-03-05T07:40:51;13.05;;;3.25;;
70744;SDS011;59284;31.390;34.904;2023-03-05T07:43:17;12.40;;;3.03;;
70744;SDS011;59284;31.390;34.904;2023-03-05T07:45:43;17.38;;;3.55;;
70744;SDS011;59284;31.390;34.904;2023-03-05T07:48:14;11.13;;;3.17;;
70744;SDS011;59284;31.390;34.904;2023-03-05T07:50:47;13.60;;;4.13;;
70744;SDS011;59284;31.390;34.904;2023-03-05T07:53:13;6.15;;;2.78;;
70744;SDS011;59284;31.390;34.904;2023-03-05T07:55:42;13.77;;;3.53;;
70744;SDS011;59284;31.390;34.904;2023-03-05T07:58:12;9.52;;;3.17;;
70744;SDS011;59284;31.390;34.904;2023-03-05T08:00:38;8.63;;;3.37;;
70744;SDS011;59284;31.390;34.904;2023-03-05T08:03:05;12.80;;;3.47;;
70744;SDS011;59284;31.390;34.904;2023-03-05T08:05:31;13.10;;;3.80;;
70744;SDS011;59284;31.390;34.904;2023-03-05T08:07:57;15.60;;;3.58;;
70744;SDS011;59284;31.390;34.904;2023-03-05T08:10:23;11.63;;;3.43;;
70744;SDS011;59284;31.390;34.904;2023-03-05T08:12:48;17.63;;;3.30;;
70744;SDS011;59284;31.390;34.904;2023-03-05T08:15:14;11.40;;;3.47;;
70744;SDS011;59284;31.390;34.904;2023-03-05T08:17:40;13.80;;;2.97;;
70744;SDS011;59284;31.390;34.904;2023-03-05T08:20:06;15.85;;;4.35;;
70744;SDS011;59284;31.390;34.904;2023-03-05T08:22:35;22.17;;;5.00;;
70744;SDS011;59284;31.390;34.904;2023-03-05T08:25:02;19.33;;;5.17;;
70744;SDS011;59284;31.390;34.904;2023-03-05T08:27:29;12.38;;;3.58;;
70744;SDS011;59284;31.390;34.904;2023-03-05T08:29:55;17.42;;;4.35;;
70744;SDS011;59284;31.390;34.904;2023-03-05T08:32:20;14.97;;;3.60;;
70744;SDS011;59284;31.390;34.904;2023-03-05T08:34:46;14.45;;;4.88;;
70744;SDS011;59284;31.390;34.904;2023-03-05T08:37:12;11.95;;;2.90;;
70744;SDS011;59284;31.390;34.904;2023-03-05T08:39:38;12.03;;;3.97;;
70744;SDS011;59284;31.390;34.904;2023-03-05T08:42:04;23.95;;;4.40;;
70744;SDS011;59284;31.390;34.904;2023-03-05T08:44:30;19.85;;;3.90;;
70744;SDS011;59284;31.390;34.904;2023-03-05T08:46:56;21.43;;;3.30;;
70744;SDS011;59284;31.390;34.904;2023-03-05T08:49:22;13.70;;;2.95;;
70744;SDS011;59284;31.390;34.904;2023-03-05T08:51:47;15.48;;;4.22;;
70744;SDS011;59284;31.390;34.904;2023-03-05T08:54:13;14.33;;;2.73;;
70744;SDS011;59284;31.390;34.904;2023-03-05T08:56:39;15.13;;;3.70;;
70744;SDS011;59284;31.390;34.904;2023-03-05T08:59:04;16.50;;;3.67;;
70744;SDS011;59284;31.390;34.904;2023-03-05T09:01:30;17.38;;;3.95;;
70744;SDS011;59284;31.390;34.904;2023-03-05T09:03:57;11.73;;;3.88;;
70744;SDS011;59284;31.390;34.904;2023-03-05T09:06:23;12.67;;;4.00;;
70744;SDS011;59284;31.390;34.904;2023-03-05T09:08:49;9.90;;;2.33;;
70744;SDS011;59284;31.390;34.904;2023-03-05T09:11:15;18.80;;;3.78;;
70744;SDS011;59284;31.390;34.904;2023-03-05T09:13:41;19.08;;;3.33;;
70744;SDS011;59284;31.390;34.904;2023-03-05T09:16:09;20.03;;;4.80;;
70744;SDS011;59284;31.390;34.904;2023-03-05T09:18:37;15.63;;;3.40;;
70744;SDS011;59284;31.390;34.904;2023-03-05T09:21:05;21.58;;;4.22;;
70744;SDS011;59284;31.390;34.904;2023-03-05T09:23:31;8.52;;;3.33;;
70744;SDS011;59284;31.390;34.904;2023-03-05T09:25:58;18.08;;;2.50;;
70744;SDS011;59284;31.390;34.904;2023-03-05T09:28:23;10.43;;;3.30;;
70744;SDS011;59284;31.390;34.904;2023-03-05T09:30:49;8.15;;;2.72;;
70744;SDS011;59284;31.390;34.904;2023-03-05T09:33:15;8.90;;;3.03;;
70744;SDS011;59284;31.390;34.904;2023-03-05T09:35:40;21.77;;;3.55;;
70744;SDS011;59284;31.390;34.904;2023-03-05T09:38:06;16.03;;;3.60;;
70744;SDS011;59284;31.390;34.904;2023-03-05T09:40:44;15.38;;;3.78;;
70744;SDS011;59284;31.390;34.904;2023-03-05T09:43:23;15.80;;;3.83;;
70744;SDS011;59284;31.390;34.904;2023-03-05T09:46:03;18.40;;;3.35;;
70744;SDS011;59284;31.390;34.904;2023-03-05T09:48:41;11.00;;;3.03;;
70744;SDS011;59284;31.390;34.904;2023-03-05T09:51:14;16.92;;;3.90;;
70744;SDS011;59284;31.390;34.904;2023-03-05T09:56:30;22.38;;;4.15;;
70744;SDS011;59284;31.390;34.904;2023-03-05T10:01:52;24.03;;;4.73;;
70744;SDS011;59284;31.390;34.904;2023-03-05T10:04:23;14.85;;;3.35;;
70744;SDS011;59284;31.390;34.904;2023-03-05T10:06:55;17.10;;;3.63;;
70744;SDS011;59284;31.390;34.904;2023-03-05T10:09:27;19.27;;;3.60;;
70744;SDS011;59284;31.390;34.904;2023-03-05T10:11:56;36.85;;;5.32;;
70744;SDS011;59284;31.390;34.904;2023-03-05T10:14:32;28.40;;;4.87;;
70744;SDS011;59284;31.390;34.904;2023-03-05T10:17:02;21.10;;;4.28;;
70744;SDS011;59284;31.390;34.904;2023-03-05T10:29:13;19.87;;;4.17;;
70744;SDS011;59284;31.390;34.904;2023-03-05T10:47:45;25.48;;;5.20;;
70744;SDS011;59284;31.390;34.904;2023-03-05T10:50:21;23.17;;;4.75;;
70744;SDS011;59284;31.390;34.904;2023-03-05T10:56:22;24.58;;;5.18;;
70744;SDS011;59284;31.390;34.904;2023-03-05T10:58:57;38.57;;;6.00;;
70744;SDS011;59284;31.390;34.904;2023-03-05T11:01:29;30.48;;;6.22;;
70744;SDS011;59284;31.390;34.904;2023-03-05T11:04:00;22.27;;;4.50;;
70744;SDS011;59284;31.390;34.904;2023-03-05T11:06:52;24.55;;;5.15;;
70744;SDS011;59284;31.390;34.904;2023-03-05T11:09:24;21.50;;;4.60;;
70744;SDS011;59284;31.390;34.904;2023-03-05T11:15:18;21.88;;;4.60;;
70744;SDS011;59284;31.390;34.904;2023-03-05T11:18:04;34.92;;;5.75;;
70744;SDS011;59284;31.390;34.904;2023-03-05T11:20:45;22.67;;;4.80;;
70744;SDS011;59284;31.390;34.904;2023-03-05T11:25:54;29.25;;;5.95;;
70744;SDS011;59284;31.390;34.904;2023-03-05T11:28:33;22.83;;;4.88;;
70744;SDS011;59284;31.390;34.904;2023-03-05T11:33:28;34.03;;;7.03;;
70744;SDS011;59284;31.390;34.904;2023-03-05T11:36:20;31.00;;;5.53;;
70744;SDS011;59284;31.390;34.904;2023-03-05T11:39:20;34.17;;;5.35;;
70744;SDS011;59284;31.390;34.904;2023-03-05T11:44:50;30.73;;;5.47;;
70744;SDS011;59284;31.390;34.904;2023-03-05T11:49:51;37.60;;;5.75;;
70744;SDS011;59284;31.390;34.904;2023-03-05T11:52:28;44.92;;;6.45;;
70744;SDS011;59284;31.390;34.904;2023-03-05T11:57:46;45.63;;;6.63;;
70744;SDS011;59284;31.390;34.904;2023-03-05T12:00:17;38.23;;;7.10;;
70744;SDS011;59284;31.390;34.904;2023-03-05T12:02:47;50.42;;;7.43;;
70744;SDS011;59284;31.390;34.904;2023-03-05T12:05:14;38.92;;;5.70;;
70744;SDS011;59284;31.390;34.904;2023-03-05T12:07:41;36.47;;;5.60;;
70744;SDS011;59284;31.390;34.904;2023-03-05T12:10:18;39.60;;;5.63;;
70744;SDS011;59284;31.390;34.904;2023-03-05T12:13:05;29.33;;;4.60;;
70744;SDS011;59284;31.390;34.904;2023-03-05T12:21:27;30.58;;;5.43;;
70744;SDS011;59284;31.390;34.904;2023-03-05T12:23:59;36.63;;;6.00;;
70744;SDS011;59284;31.390;34.904;2023-03-05T12:29:41;31.30;;;4.65;;
70744;SDS011;59284;31.390;34.904;2023-03-05T12:40:19;29.17;;;5.27;;
70744;SDS011;59284;31.390;34.904;2023-03-05T12:42:50;35.53;;;6.22;;
70744;SDS011;59284;31.390;34.904;2023-03-05T12:47:44;28.80;;;5.57;;
70744;SDS011;59284;31.390;34.904;2023-03-05T12:52:54;37.20;;;5.03;;
70744;SDS011;59284;31.390;34.904;2023-03-05T12:57:49;37.73;;;5.43;;
70744;SDS011;59284;31.390;34.904;2023-03-05T13:03:32;31.15;;;5.75;;
70744;SDS011;59284;31.390;34.904;2023-03-05T13:06:01;36.95;;;5.35;;
70744;SDS011;59284;31.390;34.904;2023-03-05T13:08:35;37.60;;;5.90;;
70744;SDS011;59284;31.390;34.904;2023-03-05T13:11:05;44.13;;;7.40;;
70744;SDS011;59284;31.390;34.904;2023-03-05T13:13:36;43.38;;;6.88;;
70744;SDS011;59284;31.390;34.904;2023-03-05T13:16:13;48.08;;;6.57;;
70744;SDS011;59284;31.390;34.904;2023-03-05T13:18:47;41.53;;;7.00;;
70744;SDS011;59284;31.390;34.904;2023-03-05T13:21:15;46.03;;;6.55;;
70744;SDS011;59284;31.390;34.904;2023-03-05T13:23:48;43.77;;;6.60;;
70744;SDS011;59284;31.390;34.904;2023-03-05T13:26:22;54.58;;;7.13;;
70744;SDS011;59284;31.390;34.904;2023-03-05T13:29:04;53.95;;;7.38;;
70744;SDS011;59284;31.390;34.904;2023-03-05T13:31:42;65.00;;;8.02;;
70744;SDS011;59284;31.390;34.904;2023-03-05T13:34:22;49.03;;;6.60;;
70744;SDS011;59284;31.390;34.904;2023-03-05T13:37:06;50.90;;;6.77;;
70744;SDS011;59284;31.390;34.904;2023-03-05T13:39:49;47.83;;;7.25;;
70744;SDS011;59284;31.390;34.904;2023-03-05T13:42:19;52.22;;;7.05;;
70744;SDS011;59284;31.390;34.904;2023-03-05T13:47:21;37.25;;;5.97;;
70744;SDS011;59284;31.390;34.904;2023-03-05T13:49:55;48.87;;;7.03;;
70744;SDS011;59284;31.390;34.904;2023-03-05T13:52:22;61.60;;;8.15;;
70744;SDS011;59284;31.390;34.904;2023-03-05T13:54:54;60.42;;;7.10;;
70744;SDS011;59284;31.390;34.904;2023-03-05T14:00:06;48.83;;;6.72;;
70744;SDS011;59284;31.390;34.904;2023-03-05T14:02:54;47.40;;;5.97;;
70744;SDS011;59284;31.390;34.904;2023-03-05T14:05:21;89.78;;;11.30;;
70744;SDS011;59284;31.390;34.904;2023-03-05T14:07:48;88.72;;;10.57;;
70744;SDS011;59284;31.390;34.904;2023-03-05T14:13:01;98.20;;;13.43;;
70744;SDS011;59284;31.390;34.904;2023-03-05T14:15:38;102.20;;;13.73;;
70744;SDS011;59284;31.390;34.904;2023-03-05T14:20:36;99.22;;;11.82;;
70744;SDS011;59284;31.390;34.904;2023-03-05T14:23:23;117.70;;;15.05;;
70744;SDS011;59284;31.390;34.904;2023-03-05T14:25:50;93.90;;;11.97;;
70744;SDS011;59284;31.390;34.904;2023-03-05T14:30:43;117.25;;;12.82;;
70744;SDS011;59284;31.390;34.904;2023-03-05T14:33:11;105.18;;;12.93;;
70744;SDS011;59284;31.390;34.904;2023-03-05T14:35:36;99.57;;;11.40;;
70744;SDS011;59284;31.390;34.904;2023-03-05T14:38:03;135.00;;;15.85;;
70744;SDS011;59284;31.390;34.904;2023-03-05T14:40:33;126.28;;;14.90;;
70744;SDS011;59284;31.390;34.904;2023-03-05T14:43:03;115.83;;;12.67;;
70744;SDS011;59284;31.390;34.904;2023-03-05T14:45:31;126.57;;;14.48;;
70744;SDS011;59284;31.390;34.904;2023-03-05T14:47:58;100.50;;;11.77;;
70744;SDS011;59284;31.390;34.904;2023-03-05T14:50:40;105.30;;;12.93;;
70744;SDS011;59284;31.390;34.904;2023-03-05T14:53:12;132.32;;;15.80;;
70744;SDS011;59284;31.390;34.904;2023-03-05T14:55:40;92.17;;;10.77;;
70744;SDS011;59284;31.390;34.904;2023-03-05T14:58:13;99.30;;;12.90;;
70744;SDS011;59284;31.390;34.904;2023-03-05T15:00:41;114.43;;;14.90;;
70744;SDS011;59284;31.390;34.904;2023-03-05T15:03:11;95.40;;;13.45;;
70744;SDS011;59284;31.390;34.904;2023-03-05T15:05:38;93.43;;;13.55;;
70744;SDS011;59284;31.390;34.904;2023-03-05T15:08:04;101.80;;;11.47;;
70744;SDS011;59284;31.390;34.904;2023-03-05T15:10:30;93.28;;;12.27;;
70744;SDS011;59284;31.390;34.904;2023-03-05T15:12:56;86.45;;;10.25;;
70744;SDS011;59284;31.390;34.904;2023-03-05T15:15:22;83.37;;;10.83;;
70744;SDS011;59284;31.390;34.904;2023-03-05T15:17:48;99.13;;;12.73;;
70744;SDS011;59284;31.390;34.904;2023-03-05T15:20:23;105.10;;;13.20;;
70744;SDS011;59284;31.390;34.904;2023-03-05T15:22:49;82.85;;;10.73;;
70744;SDS011;59284;31.390;34.904;2023-03-05T15:25:15;95.13;;;11.93;;
70744;SDS011;59284;31.390;34.904;2023-03-05T15:27:42;79.88;;;10.07;;
70744;SDS011;59284;31.390;34.904;2023-03-05T15:30:19;94.15;;;11.65;;
70744;SDS011;59284;31.390;34.904;2023-03-05T15:32:47;73.07;;;9.25;;
70744;SDS011;59284;31.390;34.904;2023-03-05T15:35:13;99.35;;;12.02;;
70744;SDS011;59284;31.390;34.904;2023-03-05T15:37:39;84.00;;;9.93;;
70744;SDS011;59284;31.390;34.904;2023-03-05T15:40:05;77.15;;;9.80;;
70744;SDS011;59284;31.390;34.904;2023-03-05T15:42:31;82.03;;;9.57;;
70744;SDS011;59284;31.390;34.904;2023-03-05T15:44:57;77.23;;;11.13;;
70744;SDS011;59284;31.390;34.904;2023-03-05T15:47:23;72.10;;;10.00;;
70744;SDS011;59284;31.390;34.904;2023-03-05T15:49:48;82.77;;;9.27;;
70744;SDS011;59284;31.390;34.904;2023-03-05T15:52:14;87.53;;;10.43;;
70744;SDS011;59284;31.390;34.904;2023-03-05T15:54:40;65.97;;;8.63;;
70744;SDS011;59284;31.390;34.904;2023-03-05T15:57:07;72.15;;;9.25;;
70744;SDS011;59284;31.390;34.904;2023-03-05T15:59:34;63.05;;;10.38;;
70744;SDS011;59284;31.390;34.904;2023-03-05T16:02:00;52.03;;;7.67;;